Time;durP1;ratioP1;P1;durP2;ratioP2;P2;SDS_P1;SDS_P2;PMS_P1;PMS_P2;Temp;Humidity;BMP_temperature;BMP_pressure;BME280_temperature;BME280_humidity;BME280_pressure;Samples;Min_cycle;Max_cycle;Signal;HPM_P1;HPM_P2
2021/07/16 00:01:13;;;;;;;0.80;0.80;;;;;;;17.62;82.20;95608.94;5076751;28;20280;-86
2021/07/16 00:03:42;;;;;;;0.98;0.75;;;;;;;17.63;82.19;95609.75;5077470;28;20225;-87
2021/07/16 00:06:09;;;;;;;0.70;0.70;;;;;;;17.65;81.86;95610.34;5076628;28;20291;-87
2021/07/16 00:08:37;;;;;;;0.70;0.68;;;;;;;17.67;81.99;95616.13;5076308;28;20565;-87
2021/07/16 00:11:06;;;;;;;0.80;0.80;;;;;;;17.64;82.52;95617.38;5075857;28;20248;-87
2021/07/16 00:13:33;;;;;;;0.75;0.70;;;;;;;17.64;82.01;95617.38;5076603;28;20211;-82
2021/07/16 00:15:59;;;;;;;2.28;0.65;;;;;;;17.63;82.17;95618.34;5077221;28;20220;-84
2021/07/16 00:18:28;;;;;;;2.28;0.60;;;;;;;17.56;83.14;95615.03;5077243;28;20569;-85
2021/07/16 00:20:58;;;;;;;0.88;0.80;;;;;;;17.55;82.77;95614.22;5076437;28;20202;-83
2021/07/16 00:23:25;;;;;;;0.73;0.65;;;;;;;17.54;82.37;95611.84;5077286;28;20602;-85
2021/07/16 00:25:53;;;;;;;0.50;0.50;;;;;;;17.56;81.63;95607.22;5077696;28;20211;-86
2021/07/16 00:28:20;;;;;;;2.58;0.70;;;;;;;17.51;81.52;95604.50;5077743;28;20233;-83
2021/07/16 00:30:46;;;;;;;1.35;0.88;;;;;;;17.52;81.44;95606.06;5077896;28;20193;-85
2021/07/16 00:33:13;;;;;;;0.77;0.70;;;;;;;17.51;81.42;95609.69;5078397;28;20853;-86
2021/07/16 00:35:39;;;;;;;1.55;0.80;;;;;;;17.49;81.35;95609.91;5077412;28;20201;-84
2021/07/16 00:38:06;;;;;;;0.70;0.70;;;;;;;17.43;82.00;95620.38;5078472;28;20200;-87
2021/07/16 00:40:33;;;;;;;0.90;0.77;;;;;;;17.47;81.59;95624.16;5077590;28;20275;-85
2021/07/16 00:43:01;;;;;;;0.68;0.68;;;;;;;17.45;81.22;95620.97;5078320;28;20222;-83
2021/07/16 00:45:28;;;;;;;0.60;0.60;;;;;;;17.44;81.32;95622.78;5078406;28;20200;-83
2021/07/16 00:47:54;;;;;;;0.77;0.70;;;;;;;17.40;81.13;95624.22;5077134;28;20845;-85
2021/07/16 00:50:24;;;;;;;0.70;0.60;;;;;;;17.40;81.20;95628.63;5078049;28;20201;-85
2021/07/16 00:52:55;;;;;;;1.40;0.60;;;;;;;17.41;81.30;95632.81;5078034;28;20227;-85
2021/07/16 00:55:21;;;;;;;0.82;0.70;;;;;;;17.45;81.06;95629.56;5078343;28;20201;-86
2021/07/16 00:57:48;;;;;;;1.00;0.90;;;;;;;17.50;81.04;95637.53;5078076;28;20229;-84
2021/07/16 01:00:17;;;;;;;1.55;0.60;;;;;;;17.55;80.77;95629.06;5076865;28;20197;-85
2021/07/16 01:02:43;;;;;;;0.88;0.70;;;;;;;17.54;81.45;95622.25;5077791;28;20213;-85
2021/07/16 01:05:12;;;;;;;1.25;0.70;;;;;;;17.54;81.51;95623.03;5075896;28;20205;-84
2021/07/16 01:07:39;;;;;;;0.75;0.63;;;;;;;17.56;81.74;95617.63;5076671;28;20739;-85
2021/07/16 01:10:07;;;;;;;2.30;0.80;;;;;;;17.52;82.32;95616.47;5076770;28;20197;-84
2021/07/16 01:12:37;;;;;;;1.88;0.63;;;;;;;17.48;82.43;95615.34;5076102;28;20227;-84
2021/07/16 01:15:05;;;;;;;1.38;0.80;;;;;;;17.48;82.30;95612.72;5075572;28;20197;-84
2021/07/16 01:17:33;;;;;;;0.93;0.80;;;;;;;17.44;82.80;95609.75;5077102;28;20220;-84
2021/07/16 01:20:03;;;;;;;1.35;0.70;;;;;;;17.41;82.94;95614.59;5075573;28;20204;-84
2021/07/16 01:22:31;;;;;;;1.10;0.77;;;;;;;17.32;83.66;95608.88;5075182;28;20228;-86
2021/07/16 01:25:01;;;;;;;0.70;0.70;;;;;;;17.32;83.80;95605.50;5075024;28;20207;-86
2021/07/16 01:27:32;;;;;;;0.60;0.60;;;;;;;17.26;84.39;95600.16;5074779;28;20197;-86
2021/07/16 01:29:59;;;;;;;0.60;0.60;;;;;;;17.26;84.42;95594.16;5075544;28;20707;-84
2021/07/16 01:32:27;;;;;;;1.60;0.60;;;;;;;17.21;84.63;95583.59;5076307;28;20606;-85
2021/07/16 01:34:55;;;;;;;0.80;0.80;;;;;;;17.26;84.25;95581.16;5075474;28;20212;-85
2021/07/16 01:37:21;;;;;;;0.70;0.70;;;;;;;17.31;83.64;95570.88;5076097;28;20221;-85
2021/07/16 01:39:48;;;;;;;0.70;0.70;;;;;;;17.31;84.24;95573.50;5076105;28;20201;-86
2021/07/16 01:42:17;;;;;;;0.60;0.60;;;;;;;17.34;84.30;95574.84;5074854;28;20232;-84
2021/07/16 01:44:44;;;;;;;0.60;0.60;;;;;;;17.26;84.77;95581.94;5073926;28;20197;-86
2021/07/16 01:47:12;;;;;;;0.80;0.73;;;;;;;17.27;84.28;95573.13;5075642;28;20204;-85
2021/07/16 01:49:40;;;;;;;0.70;0.70;;;;;;;17.31;84.22;95572.69;5075269;28;20197;-85
2021/07/16 01:52:08;;;;;;;0.73;0.73;;;;;;;17.33;84.04;95570.63;5074551;28;20221;-83
2021/07/16 01:54:34;;;;;;;0.98;0.60;;;;;;;17.31;83.96;95570.09;5076405;28;20193;-85
2021/07/16 01:57:01;;;;;;;0.63;0.60;;;;;;;17.33;83.69;95575.84;5074043;28;20220;-85
2021/07/16 01:59:32;;;;;;;0.70;0.70;;;;;;;17.22;84.53;95588.59;5073837;28;20232;-85
2021/07/16 02:01:58;;;;;;;0.82;0.60;;;;;;;17.21;84.10;95587.00;5075602;28;20316;-85
2021/07/16 02:04:25;;;;;;;0.65;0.60;;;;;;;17.16;84.99;95586.84;5074484;28;20376;-86
2021/07/16 02:06:51;;;;;;;0.80;0.80;;;;;;;17.11;85.53;95588.53;5075745;28;20226;-85
2021/07/16 02:09:18;;;;;;;1.65;0.77;;;;;;;17.17;85.21;95590.25;5076501;28;20193;-84
2021/07/16 02:11:44;;;;;;;1.40;0.65;;;;;;;17.17;85.16;95593.63;5074669;28;20295;-84
2021/07/16 02:14:11;;;;;;;0.70;0.70;;;;;;;17.18;84.89;95587.44;5075747;28;20205;-85
2021/07/16 02:16:39;;;;;;;1.50;0.77;;;;;;;17.24;84.76;95596.19;5078062;28;20231;-83
2021/07/16 02:19:05;;;;;;;1.75;0.80;;;;;;;17.24;84.95;95588.38;5079840;28;20189;-86
2021/07/16 02:21:32;;;;;;;0.60;0.60;;;;;;;17.13;85.02;95589.88;5079643;28;20212;-86
2021/07/16 02:23:58;;;;;;;0.65;0.65;;;;;;;17.15;84.93;95595.66;5080876;28;20207;-84
2021/07/16 02:26:25;;;;;;;1.65;0.60;;;;;;;17.16;85.46;95599.06;5080331;28;20208;-85
2021/07/16 02:28:51;;;;;;;0.60;0.60;;;;;;;17.24;84.58;95599.56;5081486;28;20204;-84
2021/07/16 02:31:18;;;;;;;0.60;0.57;;;;;;;17.26;84.45;95605.38;5079410;28;20223;-86
2021/07/16 02:33:47;;;;;;;1.73;0.70;;;;;;;17.25;84.74;95608.19;5081269;28;20573;-86
2021/07/16 02:36:16;;;;;;;0.60;0.60;;;;;;;17.28;84.73;95607.75;5080858;28;20254;-85
2021/07/16 02:38:42;;;;;;;0.60;0.60;;;;;;;17.29;84.60;95611.16;5080425;28;20231;-86
2021/07/16 02:41:09;;;;;;;0.60;0.60;;;;;;;17.17;86.57;95596.25;5080555;28;20228;-86
2021/07/16 02:43:36;;;;;;;0.70;0.70;;;;;;;17.18;85.87;95595.22;5080001;28;20594;-86
2021/07/16 02:46:03;;;;;;;0.95;0.65;;;;;;;17.17;85.67;95592.84;5080168;28;20196;-84
2021/07/16 02:48:29;;;;;;;1.27;0.80;;;;;;;17.15;86.31;95602.66;5080483;28;20192;-85
2021/07/16 02:50:57;;;;;;;0.50;0.50;;;;;;;17.17;86.14;95605.84;5078650;28;20223;-84
2021/07/16 02:53:24;;;;;;;0.65;0.65;;;;;;;17.19;85.50;95596.81;5080553;28;20200;-85
2021/07/16 02:55:52;;;;;;;0.70;0.70;;;;;;;17.17;85.88;95603.25;5080226;28;20189;-86
2021/07/16 02:58:18;;;;;;;2.15;0.70;;;;;;;17.14;86.03;95614.88;5079750;28;20270;-85
2021/07/16 03:00:45;;;;;;;7.40;0.70;;;;;;;17.08;87.24;95614.97;5079088;28;20208;-85
2021/07/16 03:03:12;;;;;;;1.60;0.70;;;;;;;17.02;88.41;95611.41;5079941;28;20197;-85
2021/07/16 03:05:39;;;;;;;0.70;0.70;;;;;;;17.06;87.26;95611.78;5080911;28;20232;-86
2021/07/16 03:08:09;;;;;;;0.80;0.60;;;;;;;17.12;86.47;95610.94;5080470;28;20204;-86
2021/07/16 03:10:38;;;;;;;0.70;0.70;;;;;;;17.09;86.62;95613.97;5080469;28;20213;-85
2021/07/16 03:13:07;;;;;;;0.80;0.80;;;;;;;17.17;85.41;95608.47;5079301;28;20220;-83
2021/07/16 03:15:34;;;;;;;1.30;0.70;;;;;;;17.18;84.98;95617.84;5078933;28;20204;-86
2021/07/16 03:18:01;;;;;;;1.75;0.70;;;;;;;17.15;85.55;95626.09;5078828;28;20225;-86
2021/07/16 03:20:30;;;;;;;1.17;0.70;;;;;;;17.22;85.30;95627.63;5080475;28;20197;-85
2021/07/16 03:22:57;;;;;;;0.68;0.68;;;;;;;17.23;84.41;95625.81;5079373;28;20236;-84
2021/07/16 03:25:27;;;;;;;0.77;0.60;;;;;;;17.19;85.28;95620.25;5080306;28;20200;-86
2021/07/16 03:27:54;;;;;;;0.60;0.60;;;;;;;17.24;84.67;95624.81;5079317;28;20196;-85
2021/07/16 03:30:25;;;;;;;0.80;0.60;;;;;;;17.23;84.97;95624.00;5078600;28;20207;-85
2021/07/16 03:32:53;;;;;;;2.78;0.60;;;;;;;17.30;84.67;95628.34;5078807;28;20319;-86
2021/07/16 03:35:31;;;;;;;1.60;0.60;;;;;;;17.34;84.19;95632.09;5079996;28;20204;-86
2021/07/16 03:37:58;;;;;;;1.23;0.60;;;;;;;17.36;84.09;95632.66;5079251;28;20220;-86
2021/07/16 03:40:28;;;;;;;1.33;0.60;;;;;;;17.39;84.16;95632.25;5079812;28;20196;-85
2021/07/16 03:42:57;;;;;;;1.17;0.68;;;;;;;17.30;85.17;95631.75;5079419;28;20288;-86
2021/07/16 03:45:26;;;;;;;0.70;0.70;;;;;;;17.33;84.66;95631.28;5079813;28;20193;-86
2021/07/16 03:47:54;;;;;;;1.30;0.70;;;;;;;17.26;85.44;95631.38;5079480;28;20197;-85
2021/07/16 03:50:22;;;;;;;2.03;0.70;;;;;;;17.25;86.34;95637.59;5079991;28;20207;-85
2021/07/16 03:52:49;;;;;;;1.08;0.70;;;;;;;17.30;86.09;95643.97;5078910;28;20244;-86
2021/07/16 03:55:16;;;;;;;2.05;0.63;;;;;;;17.33;85.43;95646.91;5077952;28;20204;-86
2021/07/16 03:57:45;;;;;;;0.68;0.68;;;;;;;17.35;85.04;95649.31;5078224;28;20224;-86
2021/07/16 04:00:14;;;;;;;1.08;0.70;;;;;;;17.26;87.18;95643.59;5078680;28;20212;-85
2021/07/16 04:02:43;;;;;;;0.60;0.60;;;;;;;17.33;85.82;95643.50;5078894;28;20247;-85
2021/07/16 04:05:10;;;;;;;1.50;0.70;;;;;;;17.32;85.73;95641.94;5079091;28;20205;-84
2021/07/16 04:07:45;;;;;;;1.30;0.70;;;;;;;17.34;85.81;95642.50;5078690;28;20196;-86
2021/07/16 04:10:12;;;;;;;0.50;0.50;;;;;;;17.32;86.16;95642.72;5078764;28;20200;-86
2021/07/16 04:12:38;;;;;;;1.33;0.68;;;;;;;17.30;86.57;95643.97;5078242;28;20216;-85
2021/07/16 04:15:10;;;;;;;1.27;0.68;;;;;;;17.36;85.62;95653.50;5078257;28;20210;-85
2021/07/16 04:17:37;;;;;;;1.02;0.60;;;;;;;17.35;85.99;95654.50;5078410;28;20217;-86
2021/07/16 04:20:04;;;;;;;1.73;0.70;;;;;;;17.42;84.97;95663.03;5078117;28;20196;-86
2021/07/16 04:22:32;;;;;;;0.77;0.77;;;;;;;17.44;84.27;95666.22;5078059;28;20226;-84
2021/07/16 04:24:59;;;;;;;0.82;0.75;;;;;;;17.45;84.37;95665.22;5076987;28;20684;-86
2021/07/16 04:27:25;;;;;;;0.73;0.70;;;;;;;17.47;84.22;95660.59;5077538;28;20203;-86
2021/07/16 04:29:54;;;;;;;0.60;0.60;;;;;;;17.51;83.43;95664.38;5077917;28;20244;-85
2021/07/16 04:32:25;;;;;;;0.60;0.60;;;;;;;17.53;83.29;95665.72;5076778;28;20228;-85
2021/07/16 04:34:52;;;;;;;1.70;0.70;;;;;;;17.54;83.27;95661.31;5078347;28;20215;-85
2021/07/16 04:37:18;;;;;;;1.73;0.90;;;;;;;17.55;83.93;95666.28;5077181;28;20221;-86
2021/07/16 04:39:46;;;;;;;1.48;1.00;;;;;;;17.51;83.98;95665.13;5076816;28;20196;-84
2021/07/16 04:42:12;;;;;;;1.48;0.65;;;;;;;17.51;83.74;95672.19;5076640;28;20220;-85
2021/07/16 04:44:39;;;;;;;0.80;0.80;;;;;;;17.54;84.35;95672.50;5076866;28;20215;-84
2021/07/16 04:47:05;;;;;;;1.10;0.70;;;;;;;17.54;83.65;95669.13;5076606;28;20197;-85
2021/07/16 04:49:33;;;;;;;2.30;0.68;;;;;;;17.49;83.53;95677.59;5077194;28;20236;-87
2021/07/16 04:52:00;;;;;;;3.40;0.70;;;;;;;17.54;83.27;95675.13;5076589;28;20320;-85
2021/07/16 04:54:27;;;;;;;1.52;0.80;;;;;;;17.54;82.92;95680.31;5076750;28;20223;-83
2021/07/16 04:56:54;;;;;;;2.35;0.80;;;;;;;17.55;83.15;95687.13;5076670;28;20204;-84
2021/07/16 04:59:20;;;;;;;0.60;0.60;;;;;;;17.59;82.99;95684.88;5076771;28;20201;-85
2021/07/16 05:01:48;;;;;;;1.60;0.77;;;;;;;17.62;82.69;95679.25;5075908;28;20226;-85
2021/07/16 05:04:14;;;;;;;0.63;0.60;;;;;;;17.63;82.26;95674.84;5077367;28;20582;-85
2021/07/16 05:06:42;;;;;;;0.80;0.80;;;;;;;17.65;81.85;95683.25;5076793;28;20201;-83
2021/07/16 05:09:11;;;;;;;1.30;1.00;;;;;;;17.63;81.90;95686.03;5077182;28;20204;-84
2021/07/16 05:11:37;;;;;;;2.67;0.98;;;;;;;17.67;82.01;95691.66;5076656;28;20224;-84
2021/07/16 05:14:04;;;;;;;0.88;0.70;;;;;;;17.72;80.92;95689.16;5077441;28;20208;-86
2021/07/16 05:16:30;;;;;;;5.10;0.80;;;;;;;17.72;80.25;95689.16;5076810;28;20204;-85
2021/07/16 05:18:57;;;;;;;0.70;0.68;;;;;;;17.73;80.82;95690.75;5077329;28;20226;-86
2021/07/16 05:21:28;;;;;;;1.38;0.85;;;;;;;17.74;80.61;95689.75;5077286;28;20236;-83
2021/07/16 05:23:56;;;;;;;0.60;0.60;;;;;;;17.79;80.74;95689.91;5077448;28;20667;-86
2021/07/16 05:26:23;;;;;;;1.35;0.80;;;;;;;17.82;81.09;95685.06;5076981;28;20215;-86
2021/07/16 05:28:49;;;;;;;2.40;0.80;;;;;;;17.86;80.95;95690.63;5076994;28;20200;-85
2021/07/16 05:31:16;;;;;;;1.75;0.73;;;;;;;17.89;81.16;95679.78;5076526;28;20319;-85
2021/07/16 05:33:43;;;;;;;0.80;0.80;;;;;;;17.88;82.15;95673.78;5076017;28;20208;-85
2021/07/16 05:36:09;;;;;;;1.05;0.70;;;;;;;17.91;81.52;95681.13;5076595;28;20197;-86
2021/07/16 05:38:37;;;;;;;1.08;0.80;;;;;;;17.92;82.12;95674.91;5077721;28;20227;-83
2021/07/16 05:41:05;;;;;;;1.70;0.70;;;;;;;17.90;81.90;95673.53;5076926;28;20200;-86
2021/07/16 05:43:32;;;;;;;1.05;0.80;;;;;;;17.90;82.10;95683.94;5076584;28;20193;-86
2021/07/16 05:45:58;;;;;;;1.20;0.90;;;;;;;17.88;82.13;95691.19;5076830;28;20258;-85
2021/07/16 05:48:25;;;;;;;0.80;0.80;;;;;;;17.86;82.78;95685.41;5076364;28;20200;-85
2021/07/16 05:50:52;;;;;;;0.80;0.80;;;;;;;17.89;82.35;95680.56;5078702;28;20200;-86
2021/07/16 05:53:19;;;;;;;3.78;0.80;;;;;;;17.97;82.19;95679.44;5080256;28;20201;-85
2021/07/16 05:55:46;;;;;;;1.25;0.80;;;;;;;18.02;81.07;95692.63;5080773;28;20207;-85
2021/07/16 05:58:14;;;;;;;2.40;0.93;;;;;;;18.09;81.03;95695.91;5080778;28;20217;-83
2021/07/16 06:01:01;;;;;;;1.42;1.08;;;;;;;18.13;80.73;95697.06;5082649;28;20288;-83
2021/07/16 06:03:44;;;;;;;3.13;1.10;;;;;;;18.18;80.59;95699.81;5082580;28;20252;-84
2021/07/16 06:06:10;;;;;;;2.88;1.20;;;;;;;18.24;80.45;95704.16;5082743;28;20208;-84
2021/07/16 06:09:17;;;;;;;1.27;1.13;;;;;;;18.26;80.92;95702.13;5082751;28;20208;-84
2021/07/16 06:12:27;;;;;;;2.35;1.10;;;;;;;18.35;80.63;95710.41;5078267;28;20208;-85
2021/07/16 06:14:56;;;;;;;2.85;1.40;;;;;;;18.39;80.72;95695.13;5077623;28;20216;-87
2021/07/16 06:17:48;;;;;;;1.58;1.10;;;;;;;18.42;80.90;95695.50;5080967;28;20624;-89
2021/07/16 06:23:12;;;;;;;2.30;1.50;;;;;;;18.41;82.08;95704.34;5079044;28;20255;-88
2021/07/16 06:25:38;;;;;;;2.65;1.40;;;;;;;18.52;81.72;95707.97;5079534;28;20193;-88
2021/07/16 06:28:31;;;;;;;3.10;1.58;;;;;;;18.51;82.78;95714.19;5080865;28;20280;-85
2021/07/16 06:31:09;;;;;;;2.60;1.80;;;;;;;18.55;83.64;95715.34;5080929;28;20223;-86
2021/07/16 06:33:43;;;;;;;3.90;1.60;;;;;;;18.67;82.66;95720.63;5080890;28;20196;-86
2021/07/16 06:36:13;;;;;;;1.48;1.38;;;;;;;18.70;81.49;95712.34;5080092;28;20239;-87
2021/07/16 06:38:44;;;;;;;1.90;1.80;;;;;;;18.67;81.06;95718.81;5080312;28;20221;-86
2021/07/16 06:41:31;;;;;;;1.70;1.60;;;;;;;18.64;81.50;95721.88;5078975;28;20248;-86
2021/07/16 06:44:32;;;;;;;2.42;1.50;;;;;;;18.67;82.30;95731.06;5079981;28;20296;-87
2021/07/16 06:47:10;;;;;;;1.50;1.40;;;;;;;18.67;82.67;95729.25;5079845;28;20207;-88
2021/07/16 06:49:37;;;;;;;1.42;1.33;;;;;;;18.67;82.76;95737.06;5079645;28;20201;-87
2021/07/16 06:52:10;;;;;;;1.67;1.58;;;;;;;18.78;82.98;95732.91;5079198;28;20621;-85
2021/07/16 06:54:39;;;;;;;2.42;1.50;;;;;;;18.88;82.08;95739.16;5079705;28;20292;-87
2021/07/16 06:57:12;;;;;;;1.92;1.45;;;;;;;18.97;81.49;95735.22;5079470;28;20201;-87
2021/07/16 06:59:39;;;;;;;1.90;1.70;;;;;;;18.97;81.08;95739.63;5080471;28;20248;-88
2021/07/16 07:02:08;;;;;;;2.00;1.70;;;;;;;19.02;80.26;95739.78;5077384;28;20213;-86
2021/07/16 07:04:34;;;;;;;1.83;1.73;;;;;;;19.04;80.58;95742.94;5077962;28;20211;-85
2021/07/16 07:07:01;;;;;;;1.85;1.67;;;;;;;19.08;79.39;95751.91;5078342;28;20207;-88
2021/07/16 07:09:28;;;;;;;3.58;1.60;;;;;;;19.10;79.92;95760.31;5079767;28;20688;-84
2021/07/16 07:11:54;;;;;;;1.40;1.30;;;;;;;19.12;80.98;95760.09;5079231;28;20234;-86
2021/07/16 07:14:20;;;;;;;1.52;1.40;;;;;;;19.11;81.40;95758.50;5080196;28;20541;-88
2021/07/16 07:16:47;;;;;;;2.38;1.50;;;;;;;19.12;80.60;95763.50;5079774;28;20205;-86
2021/07/16 07:19:15;;;;;;;1.65;1.20;;;;;;;19.19;80.50;95763.38;5078697;28;20629;-86
2021/07/16 07:21:54;;;;;;;1.50;1.40;;;;;;;19.26;78.31;95775.28;5080196;28;20226;-88
2021/07/16 07:24:24;;;;;;;1.52;1.27;;;;;;;19.37;77.64;95771.13;5079109;28;20200;-87
2021/07/16 07:26:53;;;;;;;2.08;1.38;;;;;;;19.38;76.76;95764.88;5079200;28;20197;-87
2021/07/16 07:29:36;;;;;;;3.72;1.40;;;;;;;19.35;78.17;95770.56;5079915;28;20221;-86
2021/07/16 07:35:02;;;;;;;1.20;1.10;;;;;;;19.59;77.00;95777.41;5078203;28;20296;-88
2021/07/16 07:37:29;;;;;;;1.83;1.23;;;;;;;19.74;75.57;95790.00;5078268;28;20200;-84
2021/07/16 07:40:14;;;;;;;;;;;;;;;;;;;;;
2021/07/16 07:42:47;;;;;;;2.88;1.23;;;;;;;19.97;75.10;95787.38;5077983;28;20295;-87
2021/07/16 07:45:23;;;;;;;1.63;1.52;;;;;;;19.86;73.94;95788.16;5078135;28;20215;-86
2021/07/16 07:48:13;;;;;;;1.73;1.42;;;;;;;20.02;74.55;95776.19;5078016;28;20676;-88
2021/07/16 07:54:01;;;;;;;1.00;0.90;;;;;;;20.43;73.80;95787.47;5079005;28;20279;-86
2021/07/16 07:56:28;;;;;;;2.10;1.23;;;;;;;20.42;73.14;95789.31;5078614;28;20201;-85
2021/07/16 07:58:58;;;;;;;1.30;1.20;;;;;;;20.46;72.99;95795.66;5077797;28;20217;-85
2021/07/16 08:01:38;;;;;;;1.52;1.17;;;;;;;20.33;70.20;95795.91;5076545;28;20568;-87
2021/07/16 08:04:06;;;;;;;1.33;1.30;;;;;;;20.22;71.53;95804.56;5077033;28;20280;-86
2021/07/16 08:06:34;;;;;;;1.30;1.20;;;;;;;20.10;70.66;95796.75;5077474;28;20192;-85
2021/07/16 08:09:01;;;;;;;2.35;1.10;;;;;;;20.01;70.16;95800.78;5077924;28;20197;-85
2021/07/16 08:11:30;;;;;;;1.10;1.10;;;;;;;19.97;71.06;95810.09;5076478;28;20696;-85
2021/07/16 08:13:57;;;;;;;1.30;1.20;;;;;;;19.94;70.83;95800.09;5077979;28;20223;-86
2021/07/16 08:16:23;;;;;;;2.55;1.17;;;;;;;19.94;70.80;95798.28;5077863;28;20590;-86
2021/07/16 08:18:50;;;;;;;1.77;1.42;;;;;;;19.97;71.48;95802.25;5076514;28;20216;-87
2021/07/16 08:21:16;;;;;;;1.13;1.00;;;;;;;19.98;71.42;95796.78;5076772;28;20231;-86
2021/07/16 08:23:44;;;;;;;1.98;1.20;;;;;;;20.00;71.54;95809.63;5078051;28;20192;-84
2021/07/16 08:26:13;;;;;;;1.05;1.05;;;;;;;19.98;71.19;95798.59;5078088;28;20196;-86
2021/07/16 08:28:39;;;;;;;1.08;1.00;;;;;;;20.01;71.33;95798.91;5078085;28;20691;-84
2021/07/16 08:31:06;;;;;;;2.22;1.10;;;;;;;20.02;70.91;95800.50;5077241;28;20240;-87
2021/07/16 08:33:33;;;;;;;1.30;1.20;;;;;;;19.98;70.80;95804.63;5077701;28;20216;-87
2021/07/16 08:36:00;;;;;;;1.25;1.15;;;;;;;19.98;70.28;95801.22;5077709;28;20211;-87
2021/07/16 08:38:27;;;;;;;1.35;1.13;;;;;;;20.04;70.67;95808.13;5078024;28;20248;-87
2021/07/16 08:40:55;;;;;;;2.22;1.30;;;;;;;19.98;69.67;95809.06;5078037;28;20219;-85
2021/07/16 08:43:24;;;;;;;2.25;1.13;;;;;;;20.07;70.09;95810.28;5078331;28;20205;-86
2021/07/16 08:45:52;;;;;;;1.90;1.40;;;;;;;20.19;70.03;95802.44;5077982;28;20197;-87
2021/07/16 08:48:19;;;;;;;1.90;1.02;;;;;;;20.35;70.00;95805.13;5077466;28;20205;-86
2021/07/16 08:50:45;;;;;;;1.05;1.00;;;;;;;20.29;70.10;95810.47;5077276;28;20846;-86
2021/07/16 08:53:12;;;;;;;1.10;1.10;;;;;;;20.40;68.57;95808.91;5076133;28;20201;-86
2021/07/16 08:55:41;;;;;;;2.70;1.20;;;;;;;20.57;68.38;95799.28;5075961;28;20243;-86
2021/07/16 08:58:11;;;;;;;1.88;1.30;;;;;;;20.93;67.54;95805.94;5076574;28;20197;-86
2021/07/16 09:00:50;;;;;;;1.95;1.05;;;;;;;21.17;66.24;95807.38;5076514;28;20205;-85
2021/07/16 09:03:17;;;;;;;1.15;1.00;;;;;;;21.24;64.85;95805.44;5076442;28;20200;-85
2021/07/16 09:05:49;;;;;;;1.35;1.10;;;;;;;21.28;64.13;95806.56;5076303;28;20200;-85
2021/07/16 09:08:16;;;;;;;1.45;0.90;;;;;;;21.30;65.21;95814.19;5075869;28;20200;-86
2021/07/16 09:10:51;;;;;;;1.60;1.20;;;;;;;21.19;65.25;95820.25;5076561;28;20687;-86
2021/07/16 09:13:27;;;;;;;1.20;1.10;;;;;;;21.04;65.15;95820.78;5076913;28;20206;-85
2021/07/16 09:16:12;;;;;;;1.38;1.00;;;;;;;20.96;65.64;95818.56;5077509;28;20204;-87
2021/07/16 09:18:41;;;;;;;1.25;0.95;;;;;;;20.91;66.95;95821.09;5076851;28;20231;-85
2021/07/16 09:21:10;;;;;;;1.17;1.08;;;;;;;20.91;65.95;95816.66;5076991;28;20240;-86
2021/07/16 09:23:38;;;;;;;1.42;1.33;;;;;;;20.86;65.56;95824.41;5077709;28;20261;-87
2021/07/16 09:26:13;;;;;;;2.10;1.20;;;;;;;20.96;65.97;95815.94;5076477;28;20212;-85
2021/07/16 09:28:45;;;;;;;2.10;1.20;;;;;;;21.03;65.64;95825.22;5077258;28;20662;-87
2021/07/16 09:31:21;;;;;;;1.80;1.35;;;;;;;21.09;65.11;95817.47;5075494;28;20614;-87
2021/07/16 09:33:51;;;;;;;1.70;1.35;;;;;;;21.05;63.99;95819.75;5075105;28;20203;-86
2021/07/16 09:36:27;;;;;;;1.27;1.00;;;;;;;20.98;64.17;95825.13;5076285;28;20270;-85
2021/07/16 09:39:00;;;;;;;1.30;1.20;;;;;;;20.97;64.92;95823.53;5075494;28;20220;-85
2021/07/16 09:41:27;;;;;;;1.20;1.10;;;;;;;21.15;65.76;95806.84;5076664;28;20251;-85
2021/07/16 09:44:04;;;;;;;2.10;1.20;;;;;;;21.38;64.86;95811.16;5076503;28;20300;-85
2021/07/16 09:46:31;;;;;;;1.33;1.23;;;;;;;21.70;64.92;95806.13;5076367;28;20205;-86
2021/07/16 09:49:12;;;;;;;1.20;1.10;;;;;;;22.22;65.25;95801.34;5077202;28;20612;-84
2021/07/16 09:51:49;;;;;;;2.50;1.30;;;;;;;22.54;62.54;95795.41;5075758;28;20220;-87
2021/07/16 09:54:16;;;;;;;3.38;1.05;;;;;;;22.75;62.26;95794.56;5075505;28;20208;-87
2021/07/16 09:56:42;;;;;;;2.22;1.23;;;;;;;22.69;62.95;95801.63;5075286;28;20283;-87
2021/07/16 09:59:13;;;;;;;1.30;1.20;;;;;;;22.81;62.01;95801.50;5075173;28;20225;-85
2021/07/16 10:01:41;;;;;;;1.10;1.00;;;;;;;22.98;60.45;95786.44;5075810;28;20241;-86
2021/07/16 10:04:16;;;;;;;1.05;1.05;;;;;;;23.26;58.31;95785.38;5075227;28;20737;-85
2021/07/16 10:06:43;;;;;;;1.10;1.00;;;;;;;23.33;56.69;95782.50;5076202;28;20200;-85
2021/07/16 10:09:10;;;;;;;1.25;1.08;;;;;;;23.33;57.77;95785.91;5075845;28;20200;-84
2021/07/16 10:11:37;;;;;;;1.63;1.20;;;;;;;23.48;57.19;95789.69;5075476;28;20231;-86
2021/07/16 10:14:05;;;;;;;1.08;1.00;;;;;;;23.65;56.98;95782.50;5074058;28;20211;-85
2021/07/16 10:16:35;;;;;;;1.10;1.00;;;;;;;23.89;56.01;95788.16;5075132;28;20200;-88
2021/07/16 10:19:03;;;;;;;2.38;0.90;;;;;;;23.94;55.09;95788.97;5075380;28;20240;-85
2021/07/16 10:21:32;;;;;;;1.00;1.00;;;;;;;23.90;55.16;95793.16;5075232;28;20232;-87
2021/07/16 10:23:59;;;;;;;1.50;0.93;;;;;;;23.69;55.03;95791.44;5074971;28;20296;-86
2021/07/16 10:26:26;;;;;;;0.75;0.75;;;;;;;23.71;53.60;95784.91;5075197;28;20287;-85
2021/07/16 10:28:53;;;;;;;1.17;0.80;;;;;;;23.81;52.54;95781.56;5073690;28;20641;-85
2021/07/16 10:31:41;;;;;;;1.02;0.93;;;;;;;23.92;51.94;95780.53;5074685;28;20600;-86
2021/07/16 10:34:35;;;;;;;0.80;0.80;;;;;;;23.91;52.49;95778.97;5074985;28;20895;-85
2021/07/16 10:37:05;;;;;;;1.00;0.90;;;;;;;23.95;53.43;95782.66;5075822;28;20197;-85
2021/07/16 10:39:50;;;;;;;1.10;1.00;;;;;;;24.14;51.28;95775.13;5077798;28;20216;-86
2021/07/16 10:42:39;;;;;;;0.77;0.77;;;;;;;24.23;51.05;95778.88;5078535;28;20311;-87
2021/07/16 10:45:08;;;;;;;1.52;0.90;;;;;;;24.21;51.70;95774.91;5076953;28;20667;-86
2021/07/16 10:47:38;;;;;;;0.80;0.80;;;;;;;23.64;52.21;95765.94;5076642;28;20201;-85
2021/07/16 10:50:07;;;;;;;0.80;0.80;;;;;;;23.39;52.29;95763.13;5077346;28;20204;-85
2021/07/16 10:52:46;;;;;;;0.80;0.80;;;;;;;23.16;52.38;95766.09;5077339;28;20712;-85
2021/07/16 10:55:14;;;;;;;1.13;0.77;;;;;;;23.37;51.65;95767.81;5077225;28;20200;-84
2021/07/16 10:57:42;;;;;;;0.80;0.80;;;;;;;23.54;51.09;95762.44;5077960;28;20201;-84
2021/07/16 11:00:12;;;;;;;0.98;0.93;;;;;;;23.46;52.80;95765.53;5078283;28;20229;-86
2021/07/16 11:02:45;;;;;;;1.00;1.00;;;;;;;23.21;53.67;95766.13;5078548;28;20228;-86
2021/07/16 11:05:51;;;;;;;1.63;1.00;;;;;;;22.97;54.01;95771.72;5078241;28;20231;-84
2021/07/16 11:08:49;;;;;;;0.80;0.80;;;;;;;22.77;55.68;95768.91;5060868;28;20200;-86
2021/07/16 11:11:17;;;;;;;1.48;0.80;;;;;;;22.77;54.12;95763.66;5077627;28;20255;-87
2021/07/16 11:13:45;;;;;;;1.30;0.90;;;;;;;23.14;52.37;95768.16;5078552;28;20200;-85
2021/07/16 11:16:41;;;;;;;0.75;0.75;;;;;;;23.55;50.46;95754.31;5078148;28;20211;-86
2021/07/16 11:19:20;;;;;;;2.90;0.98;;;;;;;23.77;50.74;95764.69;5077958;28;20204;-84
2021/07/16 11:22:05;;;;;;;0.85;0.80;;;;;;;24.06;50.02;95762.44;5077466;28;20220;-85
2021/07/16 11:24:33;;;;;;;0.82;0.82;;;;;;;24.35;50.51;95761.03;5078422;28;20211;-86
2021/07/16 11:27:04;;;;;;;0.93;0.90;;;;;;;24.62;48.73;95760.06;5077407;28;20551;-86
2021/07/16 11:29:34;;;;;;;1.65;1.00;;;;;;;24.77;50.31;95760.06;5077727;28;20200;-86
2021/07/16 11:32:02;;;;;;;1.15;0.85;;;;;;;25.04;50.44;95751.94;5077115;28;20233;-85
2021/07/16 11:34:30;;;;;;;1.13;0.85;;;;;;;24.98;51.45;95759.06;5076878;28;20204;-85
2021/07/16 11:36:56;;;;;;;0.75;0.70;;;;;;;24.63;50.77;95759.75;5076374;28;20215;-84
2021/07/16 11:39:35;;;;;;;0.70;0.70;;;;;;;24.68;49.13;95749.25;5077029;28;20224;-87
2021/07/16 11:42:02;;;;;;;1.05;0.80;;;;;;;24.74;50.51;95752.69;5076712;28;20220;-85
2021/07/16 11:44:30;;;;;;;0.75;0.75;;;;;;;25.01;49.42;95748.03;5076507;28;20200;-85
2021/07/16 11:46:58;;;;;;;3.72;1.05;;;;;;;25.26;49.23;95744.56;5075514;28;20602;-85
2021/07/16 11:49:26;;;;;;;1.30;0.88;;;;;;;25.43;47.21;95742.44;5073786;28;20204;-85
2021/07/16 11:52:02;;;;;;;1.15;0.90;;;;;;;25.47;47.32;95742.69;5074377;28;20243;-84
2021/07/16 11:54:31;;;;;;;1.00;1.00;;;;;;;25.07;50.27;95743.53;5075101;28;20200;-85
2021/07/16 11:56:59;;;;;;;1.85;1.10;;;;;;;24.72;51.32;95744.25;5074894;28;20847;-84